createdAt,value
2023-04-12T00:01:04.005Z,10.07
2023-04-12T00:02:36.040Z,7.80
2023-04-12T00:04:07.968Z,9.43
2023-04-12T00:05:39.939Z,9.85
2023-04-12T00:07:12.001Z,8.00
2023-04-12T00:08:46.982Z,7.30
2023-04-12T00:10:19.325Z,6.32
2023-04-12T00:11:51.097Z,9.38
2023-04-12T00:13:22.694Z,10.80
2023-04-12T00:14:54.300Z,8.10
2023-04-12T00:16:26.174Z,11.15
2023-04-12T00:17:57.924Z,7.05
2023-04-12T00:19:31.131Z,10.38
2023-04-12T00:21:03.340Z,8.10
2023-04-12T00:22:34.909Z,7.15
2023-04-12T00:24:06.847Z,7.88
2023-04-12T00:25:39.363Z,7.68
2023-04-12T00:27:10.980Z,8.02
2023-04-12T00:28:43.013Z,7.03
2023-04-12T00:30:14.658Z,5.90
2023-04-12T00:31:47.632Z,7.45
2023-04-12T00:33:19.196Z,4.95
2023-04-12T00:34:51.805Z,4.28
2023-04-12T00:36:25.306Z,5.70
2023-04-12T00:37:56.852Z,4.55
2023-04-12T00:39:28.449Z,4.70
2023-04-12T00:41:02.181Z,7.53
2023-04-12T00:42:35.119Z,8.98
2023-04-12T00:44:08.829Z,4.13
2023-04-12T00:45:40.580Z,4.50
2023-04-12T00:47:12.361Z,5.05
2023-04-12T00:48:44.858Z,7.57
2023-04-12T00:50:16.577Z,6.95
2023-04-12T00:51:48.138Z,4.53
2023-04-12T00:53:20.131Z,5.40
2023-04-12T00:54:53.666Z,7.30
2023-04-12T00:56:31.732Z,8.77
2023-04-12T00:58:03.562Z,5.32
2023-04-12T00:59:35.144Z,5.20
2023-04-12T01:01:07.177Z,5.32
2023-04-12T01:02:42.711Z,7.30
2023-04-12T01:04:15.813Z,7.40
2023-04-12T01:05:59.786Z,6.03
2023-04-12T01:08:00.784Z,10.15
2023-04-12T01:10:00.275Z,9.57
2023-04-12T01:11:45.333Z,6.97
2023-04-12T01:13:44.991Z,9.07
2023-04-12T01:15:17.667Z,7.68
2023-04-12T01:16:53.706Z,5.82
2023-04-12T01:18:34.145Z,6.15
2023-04-12T01:20:13.839Z,7.38
2023-04-12T01:22:11.680Z,5.68
2023-04-12T01:24:13.747Z,8.45
2023-04-12T01:25:48.232Z,5.30
2023-04-12T01:27:30.913Z,8.02
2023-04-12T01:29:08.697Z,5.07
2023-04-12T01:30:42.358Z,4.78
2023-04-12T01:32:14.015Z,5.05
2023-04-12T01:33:47.318Z,5.93
2023-04-12T01:35:28.054Z,6.20
2023-04-12T01:37:03.064Z,7.43
2023-04-12T01:38:34.967Z,6.72
2023-04-12T01:40:09.296Z,7.07
2023-04-12T01:41:43.342Z,7.90
2023-04-12T01:43:16.093Z,4.50
2023-04-12T01:44:47.726Z,6.18
2023-04-12T01:46:22.488Z,5.15
2023-04-12T01:47:54.173Z,13.80
2023-04-12T01:49:33.399Z,7.50
2023-04-12T01:51:14.415Z,6.95
2023-04-12T01:53:04.740Z,8.05
2023-04-12T01:54:41.714Z,12.68
2023-04-12T01:56:15.533Z,7.82
2023-04-12T01:57:50.369Z,8.57
2023-04-12T01:59:26.737Z,6.70
2023-04-12T02:00:59.750Z,7.07
2023-04-12T02:02:31.580Z,7.05
2023-04-12T02:04:06.498Z,10.52
2023-04-12T02:05:38.786Z,9.40
2023-04-12T02:07:11.467Z,9.98
2023-04-12T02:08:43.247Z,7.38
2023-04-12T02:10:15.384Z,6.32
2023-04-12T02:11:50.749Z,9.82
2023-04-12T02:13:22.433Z,9.15
2023-04-12T02:14:54.143Z,9.35
2023-04-12T02:16:29.321Z,6.55
2023-04-12T02:18:01.512Z,6.85
2023-04-12T02:19:33.356Z,7.45
2023-04-12T02:21:05.555Z,9.70
2023-04-12T02:22:37.108Z,8.63
2023-04-12T02:24:10.083Z,8.35
2023-04-12T02:25:42.247Z,8.90
2023-04-12T02:27:13.893Z,5.88
2023-04-12T02:28:46.204Z,8.43
2023-04-12T02:30:20.878Z,5.78
2023-04-12T02:31:56.634Z,6.15
2023-04-12T02:33:30.726Z,8.73
2023-04-12T02:35:04.610Z,8.43
2023-04-12T02:36:38.085Z,6.30
2023-04-12T02:38:10.097Z,15.63
2023-04-12T02:39:44.763Z,6.30
2023-04-12T02:41:21.401Z,8.65
2023-04-12T02:42:53.853Z,8.20
2023-04-12T02:44:29.521Z,6.07
2023-04-12T02:46:19.579Z,9.60
2023-04-12T02:47:57.261Z,9.80
2023-04-12T02:51:05.661Z,7.38
2023-04-12T02:52:38.645Z,8.75
2023-04-12T02:54:15.113Z,6.93
2023-04-12T02:56:01.282Z,6.55
2023-04-12T02:57:34.090Z,5.88
2023-04-12T02:59:06.907Z,7.85
2023-04-12T03:01:07.582Z,6.63
2023-04-12T03:02:55.716Z,7.03
2023-04-12T03:04:31.358Z,9.68
2023-04-12T03:06:06.238Z,8.73
2023-04-12T03:07:38.909Z,6.80
2023-04-12T03:09:11.468Z,9.50
2023-04-12T03:10:43.164Z,7.60
2023-04-12T03:12:16.298Z,6.93
2023-04-12T03:13:58.197Z,4.97
2023-04-12T03:15:29.955Z,4.53
2023-04-12T03:17:02.001Z,10.98
2023-04-12T03:18:33.632Z,4.68
2023-04-12T03:20:09.513Z,6.40
2023-04-12T03:21:43.436Z,7.85
2023-04-12T03:23:15.738Z,6.28
2023-04-12T03:24:55.245Z,8.55
2023-04-12T03:26:27.842Z,6.28
2023-04-12T03:28:03.145Z,6.93
2023-04-12T03:29:49.881Z,5.80
2023-04-12T03:31:24.721Z,7.25
2023-04-12T03:32:56.891Z,10.05
2023-04-12T03:34:32.366Z,6.82
2023-04-12T03:36:10.067Z,6.47
2023-04-12T03:37:43.557Z,5.40
2023-04-12T03:39:16.547Z,6.80
2023-04-12T03:40:49.611Z,4.03
2023-04-12T03:42:32.923Z,5.40
2023-04-12T03:44:14.275Z,5.30
2023-04-12T03:45:46.813Z,8.65
2023-04-12T03:47:19.136Z,5.72
2023-04-12T03:48:52.059Z,6.30
2023-04-12T03:50:25.068Z,7.97
2023-04-12T03:52:00.812Z,9.32
2023-04-12T03:53:32.573Z,4.60
2023-04-12T03:55:07.286Z,6.82
2023-04-12T03:56:39.960Z,5.50
2023-04-12T03:58:18.872Z,8.02
2023-04-12T03:59:52.010Z,7.30
2023-04-12T04:01:28.867Z,6.20
2023-04-12T04:03:03.319Z,5.32
2023-04-12T04:04:38.441Z,8.50
2023-04-12T04:06:14.191Z,7.35
2023-04-12T04:07:45.987Z,4.32
2023-04-12T04:09:19.771Z,9.73
2023-04-12T04:10:51.862Z,6.10
2023-04-12T04:12:25.619Z,11.57
2023-04-12T04:13:59.708Z,5.85
2023-04-12T04:15:32.669Z,9.60
2023-04-12T04:17:04.467Z,6.50
2023-04-12T04:18:38.221Z,5.95
2023-04-12T04:20:13.723Z,7.70
2023-04-12T04:21:50.087Z,6.57
2023-04-12T04:23:23.263Z,4.47
2023-04-12T04:24:55.855Z,5.00
2023-04-12T04:26:38.362Z,5.68
2023-04-12T04:28:20.665Z,4.90
2023-04-12T04:29:52.850Z,5.78
2023-04-12T04:31:26.357Z,5.32
2023-04-12T04:32:58.214Z,6.65
2023-04-12T04:34:31.845Z,6.50
2023-04-12T04:36:15.867Z,6.13
2023-04-12T04:37:53.569Z,5.47
2023-04-12T04:39:27.215Z,5.13
2023-04-12T04:41:04.604Z,6.43
2023-04-12T04:42:54.746Z,4.63
2023-04-12T04:44:29.190Z,6.72
2023-04-12T04:46:02.296Z,7.90
2023-04-12T04:47:34.176Z,8.45
2023-04-12T04:49:06.353Z,5.47
2023-04-12T04:50:38.078Z,8.43
2023-04-12T04:52:10.212Z,4.97
2023-04-12T04:53:41.889Z,8.38
2023-04-12T04:55:17.630Z,7.88
2023-04-12T04:56:51.129Z,11.23
2023-04-12T04:58:24.243Z,9.77
2023-04-12T04:59:56.195Z,5.85
2023-04-12T05:01:28.614Z,6.60
2023-04-12T05:03:05.893Z,5.72
2023-04-12T05:04:37.860Z,8.15
2023-04-12T05:06:09.774Z,6.40
2023-04-12T05:07:43.880Z,7.30
2023-04-12T05:09:15.733Z,7.68
2023-04-12T05:10:53.534Z,7.60
2023-04-12T05:12:27.763Z,10.50
2023-04-12T05:14:01.424Z,10.80
2023-04-12T05:15:33.283Z,12.88
2023-04-12T05:17:05.202Z,7.13
2023-04-12T05:18:37.386Z,12.70
2023-04-12T05:20:10.814Z,6.95
2023-04-12T05:21:43.670Z,7.00
2023-04-12T05:23:15.709Z,6.30
2023-04-12T05:24:50.651Z,8.60
2023-04-12T05:26:22.217Z,8.45
2023-04-12T05:27:55.855Z,8.57
2023-04-12T05:29:27.617Z,7.03
2023-04-12T05:30:59.248Z,7.25
2023-04-12T05:32:38.257Z,7.10
2023-04-12T05:34:09.968Z,4.10
2023-04-12T05:35:47.127Z,4.22
2023-04-12T05:37:19.009Z,7.43
2023-04-12T05:38:50.727Z,7.60
2023-04-12T05:40:22.338Z,5.95
2023-04-12T05:41:56.889Z,10.80
2023-04-12T05:43:30.603Z,6.35
2023-04-12T05:45:03.732Z,7.05
2023-04-12T05:46:36.290Z,5.97
2023-04-12T05:48:09.228Z,8.50
2023-04-12T05:49:40.853Z,7.07
2023-04-12T05:51:14.649Z,7.13
2023-04-12T05:52:48.514Z,5.40
2023-04-12T05:54:21.270Z,8.52
2023-04-12T05:55:55.705Z,3.83
2023-04-12T05:57:27.574Z,4.68
2023-04-12T05:59:01.214Z,7.15
2023-04-12T06:00:33.369Z,4.60
2023-04-12T06:02:05.094Z,5.03
2023-04-12T06:03:41.615Z,6.22
2023-04-12T06:05:16.985Z,5.18
2023-04-12T06:06:49.720Z,6.40
2023-04-12T06:08:21.563Z,5.45
2023-04-12T06:09:53.271Z,6.13
2023-04-12T06:11:27.573Z,4.10
2023-04-12T06:12:59.728Z,7.72
2023-04-12T06:14:31.494Z,5.85
2023-04-12T06:16:03.290Z,6.82
2023-04-12T06:17:36.399Z,5.10
2023-04-12T06:19:07.978Z,5.70
2023-04-12T06:20:40.498Z,5.63
2023-04-12T06:22:12.137Z,5.53
2023-04-12T06:23:45.803Z,5.78
2023-04-12T06:25:17.444Z,5.68
2023-04-12T06:26:51.224Z,4.30
2023-04-12T06:28:22.769Z,7.57
2023-04-12T06:29:56.741Z,6.72
2023-04-12T06:31:28.497Z,7.50
2023-04-12T06:33:01.225Z,5.90
2023-04-12T06:34:34.419Z,5.15
2023-04-12T06:36:11.518Z,9.23
2023-04-12T06:37:43.126Z,7.35
2023-04-12T06:39:16.387Z,7.43
2023-04-12T06:40:48.354Z,5.82
2023-04-12T06:42:19.952Z,6.53
2023-04-12T06:43:52.177Z,6.10
2023-04-12T06:45:23.863Z,5.75
2023-04-12T06:46:55.600Z,5.68
2023-04-12T06:48:27.210Z,10.80
2023-04-12T06:49:58.887Z,5.00
2023-04-12T06:51:31.033Z,4.38
2023-04-12T06:53:02.651Z,10.73
2023-04-12T06:54:38.344Z,6.07
2023-04-12T06:56:10.023Z,5.78
2023-04-12T06:57:43.077Z,7.53
2023-04-12T06:59:14.727Z,6.75
2023-04-12T07:00:46.354Z,6.85
2023-04-12T07:02:18.630Z,6.55
2023-04-12T07:03:50.560Z,4.78
2023-04-12T07:05:22.450Z,5.95
2023-04-12T07:06:54.173Z,5.38
2023-04-12T07:08:27.058Z,7.10
2023-04-12T07:10:00.441Z,6.38
2023-04-12T07:11:32.205Z,7.03
2023-04-12T07:13:07.208Z,8.68
2023-04-12T07:14:38.907Z,5.88
2023-04-12T07:16:10.735Z,6.85
2023-04-12T07:17:42.488Z,9.77
2023-04-12T07:19:14.327Z,6.60
2023-04-12T07:20:52.437Z,8.55
2023-04-12T07:22:24.545Z,7.32
2023-04-12T07:23:56.243Z,4.70
2023-04-12T07:25:27.871Z,5.82
2023-04-12T07:26:59.649Z,4.78
2023-04-12T07:28:31.335Z,6.80
2023-04-12T07:30:03.664Z,7.57
2023-04-12T07:31:35.876Z,6.90
2023-04-12T07:33:18.619Z,6.05
2023-04-12T07:34:51.607Z,6.82
2023-04-12T07:36:23.346Z,5.22
2023-04-12T07:37:54.968Z,5.30
2023-04-12T07:39:27.172Z,5.72
2023-04-12T07:40:58.909Z,3.92
2023-04-12T07:42:30.805Z,3.67
2023-04-12T07:44:02.452Z,7.72
2023-04-12T07:45:37.127Z,6.53
2023-04-12T07:47:08.847Z,6.47
2023-04-12T07:48:40.570Z,5.22
2023-04-12T07:50:13.883Z,4.75
2023-04-12T07:51:45.594Z,6.97
2023-04-12T07:53:27.979Z,4.43
2023-04-12T07:54:59.672Z,5.15
2023-04-12T07:56:35.512Z,6.65
2023-04-12T07:59:39.017Z,5.25
2023-04-12T08:01:13.250Z,6.30
2023-04-12T08:02:45.083Z,5.15
2023-04-12T08:04:17.054Z,5.07
2023-04-12T08:05:53.675Z,5.60
2023-04-12T08:07:27.107Z,8.60
2023-04-12T08:08:58.788Z,3.88
2023-04-12T08:10:31.410Z,5.85
2023-04-12T08:12:03.532Z,6.65
2023-04-12T08:13:35.783Z,6.70
2023-04-12T08:15:07.947Z,7.45
2023-04-12T08:16:39.604Z,5.43
2023-04-12T08:18:11.450Z,6.72
2023-04-12T08:19:43.183Z,6.97
2023-04-12T08:21:14.843Z,5.53
2023-04-12T08:22:46.897Z,3.72
2023-04-12T08:24:19.849Z,4.45
2023-04-12T08:25:52.926Z,7.97
2023-04-12T08:27:24.571Z,8.05
2023-04-12T08:28:57.728Z,7.40
2023-04-12T08:30:29.389Z,4.22
2023-04-12T08:32:01.542Z,4.57
2023-04-12T08:33:33.155Z,12.35
2023-04-12T08:35:05.975Z,8.07
2023-04-12T08:36:37.696Z,5.93
2023-04-12T08:38:09.425Z,4.35
2023-04-12T08:39:41.294Z,4.78
2023-04-12T08:41:13.926Z,6.35
2023-04-12T08:42:46.593Z,5.03
2023-04-12T08:44:18.777Z,6.20
2023-04-12T08:45:50.732Z,5.82
2023-04-12T08:47:22.916Z,5.90
2023-04-12T08:48:54.597Z,5.70
2023-04-12T08:50:26.716Z,6.13
2023-04-12T08:52:06.070Z,9.43
2023-04-12T08:53:38.865Z,6.90
2023-04-12T08:55:12.759Z,6.20
2023-04-12T08:56:45.987Z,4.20
2023-04-12T08:58:18.118Z,5.68
2023-04-12T08:59:50.727Z,3.15
2023-04-12T09:01:22.401Z,4.60
2023-04-12T09:02:54.183Z,4.93
2023-04-12T09:04:29.744Z,4.68
2023-04-12T09:06:03.547Z,4.95
2023-04-12T09:07:35.782Z,4.95
2023-04-12T09:09:08.317Z,3.38
2023-04-12T09:10:40.196Z,4.25
2023-04-12T09:12:12.980Z,5.25
2023-04-12T09:13:44.608Z,3.97
2023-04-12T09:15:17.700Z,5.32
2023-04-12T09:16:49.453Z,8.20
2023-04-12T09:18:21.359Z,5.25
2023-04-12T09:19:55.093Z,4.95
2023-04-12T09:21:27.306Z,5.28
2023-04-12T09:22:59.407Z,4.57
2023-04-12T09:24:46.399Z,4.50
2023-04-12T09:26:28.930Z,5.50
2023-04-12T09:28:00.657Z,5.75
2023-04-12T09:29:34.332Z,5.47
2023-04-12T09:31:16.202Z,4.32
2023-04-12T09:32:53.450Z,4.57
2023-04-12T09:34:26.621Z,5.53
2023-04-12T09:36:04.228Z,6.72
2023-04-12T09:37:36.001Z,5.85
2023-04-12T09:39:08.271Z,3.15
2023-04-12T09:40:40.050Z,7.45
2023-04-12T09:42:29.729Z,3.55
2023-04-12T09:44:05.767Z,3.22
2023-04-12T09:45:40.894Z,5.63
2023-04-12T09:47:13.294Z,5.18
2023-04-12T09:48:53.411Z,4.22
2023-04-12T09:50:28.741Z,4.57
2023-04-12T09:52:00.572Z,5.75
2023-04-12T09:53:34.354Z,4.88
2023-04-12T09:55:10.245Z,6.78
2023-04-12T09:56:42.336Z,4.97
2023-04-12T09:58:19.807Z,6.82
2023-04-12T09:59:53.422Z,4.03
2023-04-12T10:01:25.528Z,5.30
2023-04-12T10:02:57.712Z,6.22
2023-04-12T10:04:31.415Z,3.28
2023-04-12T10:06:04.756Z,4.53
2023-04-12T10:07:37.857Z,5.13
2023-04-12T10:09:09.962Z,4.43
2023-04-12T10:10:45.302Z,5.07
2023-04-12T10:12:17.240Z,4.05
2023-04-12T10:13:50.040Z,3.80
2023-04-12T10:15:22.126Z,7.38
2023-04-12T10:17:04.473Z,4.28
2023-04-12T10:18:39.594Z,4.88
2023-04-12T10:20:12.392Z,3.85
2023-04-12T10:21:44.083Z,5.63
2023-04-12T10:23:16.762Z,3.55
2023-04-12T10:24:49.147Z,4.72
2023-04-12T10:26:20.934Z,6.70
2023-04-12T10:27:53.151Z,4.65
2023-04-12T10:29:33.757Z,5.53
2023-04-12T10:31:27.681Z,7.20
2023-04-12T10:33:02.379Z,5.45
2023-04-12T10:34:34.094Z,4.40
2023-04-12T10:36:11.045Z,4.63
2023-04-12T10:38:02.454Z,5.47
2023-04-12T10:39:37.801Z,4.47
2023-04-12T10:41:22.359Z,4.60
2023-04-12T10:43:19.008Z,4.65
2023-04-12T10:45:17.564Z,4.28
2023-04-12T10:46:49.411Z,7.05
2023-04-12T10:48:33.361Z,5.32
2023-04-12T10:50:25.216Z,3.00
2023-04-12T10:52:00.983Z,4.65
2023-04-12T10:53:32.592Z,6.10
2023-04-12T10:55:29.945Z,3.17
2023-04-12T10:57:03.732Z,3.78
2023-04-12T10:58:49.843Z,4.57
2023-04-12T11:00:23.985Z,4.70
2023-04-12T11:02:04.905Z,3.03
2023-04-12T11:03:59.689Z,2.83
2023-04-12T11:05:31.774Z,2.78
2023-04-12T11:07:11.965Z,3.60
2023-04-12T11:08:46.677Z,3.28
2023-04-12T11:10:28.617Z,4.70
2023-04-12T11:12:07.503Z,3.15
2023-04-12T11:13:42.274Z,3.70
2023-04-12T11:15:14.274Z,6.15
2023-04-12T11:17:06.300Z,4.22
2023-04-12T11:18:38.668Z,2.80
2023-04-12T11:20:13.176Z,4.03
2023-04-12T11:21:45.266Z,2.53
2023-04-12T11:23:17.518Z,5.50
2023-04-12T11:24:54.463Z,2.83
2023-04-12T11:26:31.236Z,3.60
2023-04-12T11:28:06.879Z,2.72
2023-04-12T11:29:44.471Z,4.15
2023-04-12T11:31:20.546Z,2.95
2023-04-12T11:32:52.366Z,2.80
2023-04-12T11:34:24.513Z,3.70
2023-04-12T11:35:56.160Z,4.53
2023-04-12T11:37:30.454Z,5.85
2023-04-12T11:39:02.103Z,2.55
2023-04-12T11:40:33.781Z,2.33
2023-04-12T11:42:08.350Z,3.60
2023-04-12T11:43:40.267Z,2.70
2023-04-12T11:45:17.069Z,2.60
2023-04-12T11:46:50.562Z,2.33
2023-04-12T11:48:22.308Z,2.40
2023-04-12T11:49:55.896Z,3.10
2023-04-12T11:51:32.449Z,2.63
2023-04-12T11:53:13.875Z,3.50
2023-04-12T11:54:50.662Z,2.53
2023-04-12T11:56:22.546Z,2.25
2023-04-12T11:57:56.167Z,3.22
2023-04-12T11:59:35.113Z,2.55
2023-04-12T12:01:06.813Z,2.75
2023-04-12T12:02:43.551Z,3.13
2023-04-12T12:04:21.199Z,3.88
2023-04-12T12:05:53.732Z,2.42
2023-04-12T12:07:26.663Z,6.78
2023-04-12T12:08:58.866Z,2.90
2023-04-12T12:10:43.599Z,3.17
2023-04-12T12:12:18.752Z,3.17
2023-04-12T12:13:54.968Z,3.78
2023-04-12T12:15:31.083Z,2.30
2023-04-12T12:17:09.597Z,2.65
2023-04-12T12:18:45.710Z,2.30
2023-04-12T12:20:24.539Z,3.05
2023-04-12T12:22:22.129Z,2.17
2023-04-12T12:23:53.860Z,2.60
2023-04-12T12:25:25.878Z,3.40
2023-04-12T12:27:01.767Z,3.17
2023-04-12T12:28:40.449Z,2.55
2023-04-12T12:30:12.575Z,3.42
2023-04-12T12:31:49.256Z,3.00
2023-04-12T12:33:24.802Z,2.47
2023-04-12T12:35:09.370Z,5.80
2023-04-12T12:36:41.230Z,2.38
2023-04-12T12:38:12.914Z,2.63
2023-04-12T12:40:28.173Z,2.45
2023-04-12T12:42:00.254Z,3.30
2023-04-12T12:43:32.801Z,2.22
2023-04-12T12:45:04.707Z,5.30
2023-04-12T12:46:52.050Z,5.28
2023-04-12T12:48:25.553Z,3.25
2023-04-12T12:49:57.958Z,3.47
2023-04-12T12:51:29.538Z,2.95
2023-04-12T12:53:01.953Z,4.22
2023-04-12T12:54:41.282Z,3.20
2023-04-12T12:56:14.846Z,2.00
2023-04-12T12:57:58.421Z,3.10
2023-04-12T12:59:38.025Z,2.97
2023-04-12T13:01:09.668Z,2.70
2023-04-12T13:02:42.859Z,1.85
2023-04-12T13:04:14.808Z,2.42
2023-04-12T13:05:46.751Z,2.88
2023-04-12T13:07:18.388Z,2.60
2023-04-12T13:08:50.016Z,2.95
2023-04-12T13:10:21.629Z,2.67
2023-04-12T13:11:53.266Z,3.75
2023-04-12T13:13:24.830Z,2.28
2023-04-12T13:15:06.874Z,2.55
2023-04-12T13:16:49.229Z,3.25
2023-04-12T13:18:21.175Z,2.47
2023-04-12T13:19:52.861Z,4.07
2023-04-12T13:21:24.534Z,1.52
2023-04-12T13:22:56.210Z,2.67
2023-04-12T13:24:27.794Z,1.85
2023-04-12T13:25:59.331Z,2.75
2023-04-12T13:27:30.956Z,3.72
2023-04-12T13:29:03.301Z,2.13
2023-04-12T13:30:34.903Z,4.32
2023-04-12T13:32:06.796Z,3.80
2023-04-12T13:33:38.515Z,3.10
2023-04-12T13:35:11.088Z,2.15
2023-04-12T13:36:42.620Z,2.40
2023-04-12T13:38:14.273Z,2.80
2023-04-12T13:39:45.881Z,4.22
2023-04-12T13:41:19.031Z,4.60
2023-04-12T13:42:50.626Z,4.15
2023-04-12T13:44:22.300Z,3.97
2023-04-12T13:45:53.901Z,5.30
2023-04-12T13:47:27.109Z,1.73
2023-04-12T13:48:58.868Z,2.55
2023-04-12T13:50:30.895Z,2.40
2023-04-12T13:52:02.949Z,1.83
2023-04-12T13:53:34.733Z,2.53
2023-04-12T13:55:08.322Z,2.40
2023-04-12T13:56:40.146Z,4.07
2023-04-12T13:58:12.005Z,3.88
2023-04-12T13:59:43.643Z,3.13
2023-04-12T14:01:15.225Z,2.17
2023-04-12T14:02:47.054Z,2.60
2023-04-12T14:04:18.728Z,4.20
2023-04-12T14:05:50.603Z,3.10
2023-04-12T14:07:22.884Z,2.25
2023-04-12T14:08:54.482Z,2.97
2023-04-12T14:10:26.146Z,6.60
2023-04-12T14:11:59.729Z,3.05
2023-04-12T14:13:31.388Z,2.22
2023-04-12T14:15:03.533Z,2.80
2023-04-12T14:16:35.155Z,2.95
2023-04-12T14:18:06.843Z,3.83
2023-04-12T14:19:38.471Z,2.72
2023-04-12T14:21:10.572Z,4.07
2023-04-12T14:22:42.233Z,2.08
2023-04-12T14:24:14.412Z,6.05
2023-04-12T14:25:46.442Z,3.97
2023-04-12T14:27:18.352Z,3.35
2023-04-12T14:28:50.160Z,3.20
2023-04-12T14:30:22.044Z,3.08
2023-04-12T14:31:53.668Z,4.57
2023-04-12T14:33:25.264Z,2.17
2023-04-12T14:35:21.994Z,3.45
2023-04-12T14:36:53.711Z,4.75
2023-04-12T14:38:25.346Z,1.75
2023-04-12T14:39:57.018Z,2.40
2023-04-12T14:41:29.336Z,3.15
2023-04-12T14:43:01.245Z,2.25
2023-04-12T14:44:32.931Z,2.53
2023-04-12T14:46:04.818Z,2.78
2023-04-12T14:47:36.868Z,3.28
2023-04-12T14:49:08.480Z,3.38
2023-04-12T14:50:40.217Z,2.60
2023-04-12T14:52:11.983Z,2.22
2023-04-12T14:53:43.643Z,2.80
2023-04-12T14:55:17.411Z,4.07
2023-04-12T14:56:54.103Z,4.15
2023-04-12T14:58:29.347Z,5.53
2023-04-12T15:00:01.652Z,3.17
2023-04-12T15:01:33.910Z,3.22
2023-04-12T15:03:07.330Z,2.47
2023-04-12T15:04:39.356Z,5.68
2023-04-12T15:06:11.372Z,2.47
2023-04-12T15:07:43.078Z,3.25
2023-04-12T15:09:17.714Z,4.30
2023-04-12T15:10:49.529Z,2.55
2023-04-12T15:12:21.249Z,3.25
2023-04-12T15:13:53.534Z,2.20
2023-04-12T15:15:25.222Z,3.28
2023-04-12T15:16:57.072Z,5.85
2023-04-12T15:18:28.622Z,2.97
2023-04-12T15:20:08.340Z,12.43
2023-04-12T15:21:39.962Z,2.42
2023-04-12T15:23:12.328Z,1.25
2023-04-12T15:24:43.998Z,3.05
2023-04-12T15:26:15.975Z,2.70
2023-04-12T15:27:49.268Z,3.33
2023-04-12T15:29:22.319Z,1.85
2023-04-12T15:30:55.263Z,2.58
2023-04-12T15:32:28.409Z,3.38
2023-04-12T15:34:00.331Z,3.40
2023-04-12T15:35:32.147Z,3.05
2023-04-12T15:37:05.231Z,2.90
2023-04-12T15:38:42.888Z,2.08
2023-04-12T15:40:15.416Z,3.45
2023-04-12T15:41:47.196Z,3.28
2023-04-12T15:43:18.843Z,13.35
2023-04-12T15:44:50.356Z,6.18
2023-04-12T15:46:22.155Z,5.85
2023-04-12T15:47:55.343Z,3.38
2023-04-12T15:49:27.213Z,3.38
2023-04-12T15:50:59.575Z,5.78
2023-04-12T15:52:31.688Z,3.70
2023-04-12T15:54:03.929Z,3.92
2023-04-12T15:55:36.104Z,3.60
2023-04-12T15:57:11.614Z,6.90
2023-04-12T15:58:43.325Z,2.70
2023-04-12T16:00:24.731Z,3.20
2023-04-12T16:01:58.839Z,2.80
2023-04-12T16:03:31.633Z,3.35
2023-04-12T16:05:03.744Z,2.60
2023-04-12T16:06:35.818Z,2.85
2023-04-12T16:08:07.634Z,2.55
2023-04-12T16:09:39.860Z,2.25
2023-04-12T16:11:12.237Z,2.30
2023-04-12T16:12:44.881Z,2.42
2023-04-12T16:14:16.628Z,3.47
2023-04-12T16:15:48.544Z,3.35
2023-04-12T16:17:20.861Z,2.72
2023-04-12T16:18:53.193Z,2.65
2023-04-12T16:20:24.939Z,2.80
2023-04-12T16:21:56.959Z,2.75
2023-04-12T16:23:29.414Z,2.70
2023-04-12T16:25:01.020Z,3.15
2023-04-12T16:26:33.697Z,3.85
2023-04-12T16:28:07.416Z,2.20
2023-04-12T16:29:40.348Z,4.35
2023-04-12T16:31:15.577Z,2.53
2023-04-12T16:32:47.990Z,2.33
2023-04-12T16:34:21.964Z,2.10
2023-04-12T16:35:53.896Z,2.45
2023-04-12T16:37:29.027Z,3.22
2023-04-12T16:39:05.465Z,2.67
2023-04-12T16:40:37.373Z,1.85
2023-04-12T16:42:09.171Z,1.70
2023-04-12T16:43:43.330Z,1.58
2023-04-12T16:45:16.669Z,4.40
2023-04-12T16:46:48.957Z,2.67
2023-04-12T16:48:22.858Z,2.05
2023-04-12T16:49:54.574Z,5.10
2023-04-12T16:51:27.228Z,6.90
2023-04-12T16:53:08.930Z,3.45
2023-04-12T16:54:40.716Z,2.13
2023-04-12T16:56:12.421Z,2.33
2023-04-12T16:57:45.933Z,2.70
2023-04-12T16:59:18.001Z,3.20
2023-04-12T17:00:49.703Z,2.38
2023-04-12T17:02:21.662Z,2.35
2023-04-12T17:03:53.589Z,1.40
2023-04-12T17:05:25.496Z,2.20
2023-04-12T17:06:57.379Z,2.50
2023-04-12T17:08:29.017Z,1.95
2023-04-12T17:10:00.620Z,2.30
2023-04-12T17:11:32.267Z,2.08
2023-04-12T17:13:04.438Z,2.67
2023-04-12T17:14:37.112Z,2.72
2023-04-12T17:16:10.171Z,2.10
2023-04-12T17:17:43.698Z,1.75
2023-04-12T17:19:15.835Z,2.25
2023-04-12T17:20:47.808Z,2.47
2023-04-12T17:22:19.628Z,7.72
2023-04-12T17:23:52.144Z,7.15
2023-04-12T17:25:25.905Z,2.70
2023-04-12T17:26:59.291Z,2.92
2023-04-12T17:28:31.385Z,3.88
2023-04-12T17:30:10.658Z,3.63
2023-04-12T17:31:42.812Z,3.88
2023-04-12T17:33:17.951Z,3.55
2023-04-12T17:34:54.796Z,2.88
2023-04-12T17:36:26.824Z,3.58
2023-04-12T17:37:58.471Z,3.05
2023-04-12T17:39:30.067Z,6.15
2023-04-12T17:41:02.454Z,3.30
2023-04-12T17:42:34.165Z,2.40
2023-04-12T17:44:06.731Z,2.28
2023-04-12T17:45:38.930Z,2.70
2023-04-12T17:47:10.679Z,2.60
2023-04-12T17:48:42.347Z,3.78
2023-04-12T17:50:14.245Z,3.75
2023-04-12T17:51:46.030Z,3.13
2023-04-12T17:53:17.661Z,4.10
2023-04-12T17:54:49.283Z,3.40
2023-04-12T17:56:20.906Z,7.82
2023-04-12T17:57:55.944Z,6.50
2023-04-12T17:59:28.145Z,4.68
2023-04-12T18:00:59.863Z,4.07
2023-04-12T18:02:31.844Z,3.75
2023-04-12T18:04:05.620Z,5.45
2023-04-12T18:05:37.555Z,4.10
2023-04-12T18:07:11.549Z,4.10
2023-04-12T18:08:43.168Z,3.92
2023-04-12T18:10:18.907Z,3.95
2023-04-12T18:11:52.279Z,2.60
2023-04-12T18:13:23.867Z,2.35
2023-04-12T18:14:55.537Z,2.65
2023-04-12T18:16:28.254Z,3.92
2023-04-12T18:18:00.008Z,3.72
2023-04-12T18:19:31.763Z,3.50
2023-04-12T18:21:05.293Z,3.17
2023-04-12T18:22:38.419Z,4.25
2023-04-12T18:24:10.012Z,3.72
2023-04-12T18:25:41.703Z,3.85
2023-04-12T18:27:13.314Z,3.67
2023-04-12T18:28:45.036Z,2.30
2023-04-12T18:30:17.722Z,3.10
2023-04-12T18:31:49.494Z,3.60
2023-04-12T18:33:21.392Z,3.45
2023-04-12T18:34:53.313Z,4.82
2023-04-12T18:36:27.292Z,4.10
2023-04-12T18:37:58.937Z,7.68
2023-04-12T18:39:31.063Z,4.70
2023-04-12T18:41:03.394Z,7.03
2023-04-12T18:42:35.248Z,6.00
2023-04-12T18:44:11.938Z,6.07
2023-04-12T18:45:43.677Z,5.50
2023-04-12T18:47:15.469Z,4.57
2023-04-12T18:48:48.121Z,4.45
2023-04-12T18:50:19.889Z,4.70
2023-04-12T18:51:53.394Z,3.85
2023-04-12T18:53:25.365Z,3.22
2023-04-12T18:54:57.012Z,3.72
2023-04-12T18:56:28.610Z,2.97
2023-04-12T18:58:00.422Z,4.55
2023-04-12T18:59:32.313Z,4.10
2023-04-12T19:01:04.083Z,3.63
2023-04-12T19:02:35.935Z,3.70
2023-04-12T19:04:08.057Z,2.67
2023-04-12T19:05:39.907Z,2.60
2023-04-12T19:07:11.600Z,2.47
2023-04-12T19:08:43.287Z,2.97
2023-04-12T19:10:15.759Z,2.13
2023-04-12T19:11:47.563Z,3.30
2023-04-12T19:13:20.456Z,2.40
2023-04-12T19:14:52.574Z,4.30
2023-04-12T19:16:24.714Z,2.88
2023-04-12T19:17:56.554Z,2.92
2023-04-12T19:19:28.269Z,2.90
2023-04-12T19:20:59.936Z,4.00
2023-04-12T19:22:31.982Z,3.78
2023-04-12T19:24:03.948Z,3.08
2023-04-12T19:25:35.729Z,3.67
2023-04-12T19:27:07.773Z,3.70
2023-04-12T19:28:39.552Z,6.70
2023-04-12T19:30:13.020Z,4.18
2023-04-12T19:31:47.220Z,2.75
2023-04-12T19:33:19.803Z,2.67
2023-04-12T19:34:51.688Z,1.98
2023-04-12T19:36:24.487Z,2.60
2023-04-12T19:37:56.264Z,2.25
2023-04-12T19:39:28.054Z,1.88
2023-04-12T19:40:59.683Z,2.20
2023-04-12T19:42:31.517Z,10.35
2023-04-12T19:44:03.273Z,2.00
2023-04-12T19:45:35.609Z,1.77
2023-04-12T19:47:07.936Z,2.35
2023-04-12T19:48:39.650Z,3.20
2023-04-12T19:50:13.298Z,2.20
2023-04-12T19:51:46.465Z,2.17
2023-04-12T19:53:18.294Z,3.30
2023-04-12T19:54:50.086Z,2.22
2023-04-12T19:56:23.749Z,4.10
2023-04-12T19:57:56.733Z,2.78
2023-04-12T19:59:30.906Z,2.67
2023-04-12T20:01:02.901Z,2.08
2023-04-12T20:02:34.848Z,2.13
2023-04-12T20:04:06.729Z,2.38
2023-04-12T20:05:39.950Z,3.00
2023-04-12T20:07:11.637Z,2.63
2023-04-12T20:08:43.306Z,4.32
2023-04-12T20:10:15.660Z,3.13
2023-04-12T20:11:47.493Z,3.33
2023-04-12T20:13:19.247Z,4.35
2023-04-12T20:14:51.064Z,3.13
2023-04-12T20:16:24.244Z,2.50
2023-04-12T20:17:56.648Z,2.22
2023-04-12T20:19:28.547Z,2.60
2023-04-12T20:21:00.451Z,2.92
2023-04-12T20:22:32.189Z,3.42
2023-04-12T20:24:08.087Z,3.53
2023-04-12T20:25:41.822Z,2.90
2023-04-12T20:27:17.521Z,4.15
2023-04-12T20:28:49.562Z,3.05
2023-04-12T20:30:22.784Z,2.78
2023-04-12T20:31:55.660Z,2.92
2023-04-12T20:33:27.293Z,2.78
2023-04-12T20:34:59.067Z,2.67
2023-04-12T20:36:31.376Z,4.32
2023-04-12T20:38:03.092Z,2.75
2023-04-12T20:39:34.750Z,2.30
2023-04-12T20:41:06.383Z,2.92
2023-04-12T20:42:38.012Z,2.30
2023-04-12T20:44:09.631Z,3.28
2023-04-12T20:45:41.338Z,2.35
2023-04-12T20:47:13.310Z,3.08
2023-04-12T20:48:47.378Z,3.85
2023-04-12T20:50:23.071Z,2.13
2023-04-12T20:51:59.111Z,3.08
2023-04-12T20:53:30.814Z,3.00